createdAt,value
2023-05-24T00:00:28.954Z,29.72
2023-05-24T00:03:04.775Z,29.75
2023-05-24T00:05:38.036Z,30.14
2023-05-24T00:08:10.738Z,29.82
2023-05-24T00:10:44.965Z,29.76
2023-05-24T00:13:17.853Z,30.04
2023-05-24T00:15:50.528Z,29.93
2023-05-24T00:18:23.542Z,29.99
2023-05-24T00:20:57.279Z,29.95
2023-05-24T00:23:30.040Z,30.01
2023-05-24T00:26:04.240Z,29.85
2023-05-24T00:28:39.460Z,30.05
2023-05-24T00:31:14.931Z,30.25
2023-05-24T00:33:47.648Z,29.91
2023-05-24T00:36:20.417Z,30.19
2023-05-24T00:38:53.841Z,30.19
2023-05-24T00:41:27.958Z,30.16
2023-05-24T00:44:00.655Z,30.02
2023-05-24T00:46:35.175Z,30.47
2023-05-24T00:49:08.181Z,30.33
2023-05-24T00:51:41.317Z,30.16
2023-05-24T00:54:15.149Z,30.16
2023-05-24T00:56:49.439Z,30.48
2023-05-24T00:59:22.112Z,30.46
2023-05-24T01:01:55.528Z,30.53
2023-05-24T01:04:28.698Z,30.38
2023-05-24T01:07:07.895Z,30.30
2023-05-24T01:09:50.481Z,30.72
2023-05-24T01:12:29.729Z,30.38
2023-05-24T01:15:08.896Z,30.67
2023-05-24T01:17:46.298Z,30.48
2023-05-24T01:20:19.716Z,30.43
2023-05-24T01:23:07.294Z,30.40
2023-05-24T01:25:57.594Z,30.51
2023-05-24T01:28:32.869Z,30.42
2023-05-24T01:31:06.118Z,30.74
2023-05-24T01:33:41.659Z,30.60
2023-05-24T01:36:14.344Z,30.79
2023-05-24T01:38:47.453Z,30.77
2023-05-24T01:41:24.969Z,30.88
2023-05-24T01:44:03.095Z,30.81
2023-05-24T01:46:37.508Z,30.90
2023-05-24T01:49:17.912Z,30.73
2023-05-24T01:51:52.555Z,30.93
2023-05-24T01:54:26.969Z,30.88
2023-05-24T01:57:00.807Z,30.67
2023-05-24T01:59:35.624Z,30.68
2023-05-24T02:02:08.409Z,30.98
2023-05-24T02:04:41.267Z,30.73
2023-05-24T02:07:14.036Z,31.02
2023-05-24T02:09:46.726Z,30.88
2023-05-24T02:12:19.408Z,31.00
2023-05-24T02:14:54.622Z,30.84
2023-05-24T02:17:27.791Z,30.95
2023-05-24T02:20:01.121Z,30.91
2023-05-24T02:22:34.237Z,30.84
2023-05-24T02:25:08.062Z,31.16
2023-05-24T02:27:41.935Z,30.80
2023-05-24T02:30:16.055Z,31.19
2023-05-24T02:32:48.767Z,31.03
2023-05-24T02:35:21.852Z,30.90
2023-05-24T02:37:54.624Z,31.20
2023-05-24T02:40:27.308Z,31.16
2023-05-24T02:42:59.992Z,31.32
2023-05-24T02:45:34.086Z,31.21
2023-05-24T02:48:07.036Z,31.20
2023-05-24T02:50:40.120Z,31.28
2023-05-24T02:53:12.927Z,31.13
2023-05-24T02:55:46.808Z,31.34
2023-05-24T02:58:21.125Z,31.52
2023-05-24T03:00:57.224Z,31.54
2023-05-24T03:03:30.906Z,31.28
2023-05-24T03:06:04.136Z,31.47
2023-05-24T03:08:37.468Z,31.35
2023-05-24T03:11:11.124Z,31.41
2023-05-24T03:13:44.394Z,31.50
2023-05-24T03:16:19.869Z,31.37
2023-05-24T03:18:55.387Z,31.38
2023-05-24T03:21:28.166Z,31.58
2023-05-24T03:24:02.656Z,31.46
2023-05-24T03:26:35.539Z,31.45
2023-05-24T03:29:08.766Z,31.47
2023-05-24T03:31:46.669Z,31.57
2023-05-24T03:34:19.530Z,31.64
2023-05-24T03:36:52.897Z,31.59
2023-05-24T03:39:25.706Z,31.64
2023-05-24T03:42:10.057Z,31.85
2023-05-24T03:44:43.997Z,31.90
2023-05-24T03:47:18.189Z,31.85
2023-05-24T03:49:51.316Z,31.83
2023-05-24T03:52:24.126Z,31.77
2023-05-24T03:54:57.109Z,31.58
2023-05-24T03:57:29.881Z,31.78
2023-05-24T04:00:02.916Z,31.81
2023-05-24T04:02:38.280Z,31.76
2023-05-24T04:05:11.432Z,31.69
2023-05-24T04:07:45.406Z,31.61
2023-05-24T04:10:18.698Z,31.56
2023-05-24T04:12:51.391Z,31.76
2023-05-24T04:15:24.129Z,31.69
2023-05-24T04:17:58.431Z,31.87
2023-05-24T04:20:31.307Z,31.84
2023-05-24T04:23:04.063Z,31.67
2023-05-24T04:25:37.149Z,31.63
2023-05-24T04:28:11.104Z,31.96
2023-05-24T04:30:46.088Z,31.53
2023-05-24T04:33:20.100Z,31.71
2023-05-24T04:35:53.363Z,31.67
2023-05-24T04:38:26.068Z,31.64
2023-05-24T04:41:01.226Z,31.71
2023-05-24T04:43:34.722Z,31.50
2023-05-24T04:46:09.146Z,31.75
2023-05-24T04:48:43.651Z,31.67
2023-05-24T04:51:16.305Z,31.83
2023-05-24T04:53:49.047Z,31.61
2023-05-24T04:56:23.160Z,31.68
2023-05-24T04:58:55.933Z,31.69
2023-05-24T05:01:28.782Z,31.84
2023-05-24T05:04:04.543Z,31.83
2023-05-24T05:06:39.664Z,31.52
2023-05-24T05:09:13.968Z,31.73
2023-05-24T05:11:47.282Z,31.70
2023-05-24T05:14:20.033Z,31.50
2023-05-24T05:16:53.020Z,31.60
2023-05-24T05:19:27.206Z,31.55
2023-05-24T05:21:59.953Z,31.40
2023-05-24T05:24:32.660Z,31.34
2023-05-24T05:27:05.764Z,31.31
2023-05-24T05:29:38.559Z,31.30
2023-05-24T05:32:11.281Z,31.44
2023-05-24T05:34:45.551Z,31.43
2023-05-24T05:37:18.222Z,31.30
2023-05-24T05:39:50.973Z,31.48
2023-05-24T05:42:28.260Z,31.45
2023-05-24T05:45:01.130Z,31.08
2023-05-24T05:47:33.880Z,31.39
2023-05-24T05:50:08.868Z,31.09
2023-05-24T05:52:42.145Z,31.05
2023-05-24T05:55:14.952Z,31.18
2023-05-24T05:57:47.679Z,31.11
2023-05-24T06:00:21.412Z,30.95
2023-05-24T06:02:54.606Z,30.85
2023-05-24T06:05:28.813Z,30.62
2023-05-24T06:08:01.566Z,30.79
2023-05-24T06:10:34.237Z,30.72
2023-05-24T06:13:07.013Z,30.51
2023-05-24T06:15:40.024Z,30.91
2023-05-24T06:18:13.766Z,30.64
2023-05-24T06:20:47.951Z,30.53
2023-05-24T06:23:20.701Z,30.52
2023-05-24T06:25:53.577Z,30.46
2023-05-24T06:28:26.340Z,30.49
2023-05-24T06:30:59.078Z,30.68
2023-05-24T06:33:32.368Z,30.46
2023-05-24T06:36:06.697Z,30.54
2023-05-24T06:38:39.718Z,30.51
2023-05-24T06:41:12.400Z,30.30
2023-05-24T06:43:46.152Z,30.26
2023-05-24T06:46:18.867Z,30.64
2023-05-24T06:48:51.698Z,30.39
2023-05-24T06:51:26.026Z,30.36
2023-05-24T06:53:58.848Z,30.69
2023-05-24T06:56:31.525Z,30.51
2023-05-24T06:59:04.276Z,30.38
2023-05-24T07:01:39.738Z,30.51
2023-05-24T07:04:12.575Z,30.42
2023-05-24T07:06:46.710Z,30.55
2023-05-24T07:09:19.532Z,30.40
2023-05-24T07:11:52.842Z,30.31
2023-05-24T07:14:26.143Z,30.51
2023-05-24T07:16:59.985Z,30.58
2023-05-24T07:19:35.939Z,30.27
2023-05-24T07:22:09.985Z,30.31
2023-05-24T07:24:42.662Z,30.16
2023-05-24T07:27:15.440Z,29.78
2023-05-24T07:29:50.140Z,30.05
2023-05-24T07:32:22.985Z,29.70
2023-05-24T07:34:55.719Z,29.61
2023-05-24T07:37:29.784Z,29.63
2023-05-24T07:40:02.465Z,29.90
2023-05-24T07:42:35.230Z,29.65
2023-05-24T07:45:08.840Z,29.58
2023-05-24T07:47:41.686Z,29.37
2023-05-24T07:50:14.403Z,29.22
2023-05-24T07:52:48.541Z,29.13
2023-05-24T07:55:21.732Z,29.01
2023-05-24T07:57:54.422Z,29.37
2023-05-24T08:00:27.866Z,29.23
2023-05-24T08:03:00.791Z,29.14
2023-05-24T08:05:33.931Z,29.13
2023-05-24T08:08:08.430Z,29.28
2023-05-24T08:10:41.349Z,29.22
2023-05-24T08:13:14.129Z,29.61
2023-05-24T08:15:46.896Z,29.40
2023-05-24T08:18:19.601Z,29.46
2023-05-24T08:20:52.377Z,29.42
2023-05-24T08:23:27.011Z,29.15
2023-05-24T08:25:59.938Z,28.72
2023-05-24T08:28:33.002Z,28.63
2023-05-24T08:31:06.200Z,28.43
2023-05-24T08:33:39.262Z,28.50
2023-05-24T08:36:12.209Z,28.92
2023-05-24T08:38:46.337Z,29.59
2023-05-24T08:41:19.135Z,29.98
2023-05-24T08:43:52.621Z,30.17
2023-05-24T08:46:26.087Z,30.27
2023-05-24T08:48:58.944Z,30.15
2023-05-24T08:51:31.755Z,29.48
2023-05-24T08:54:07.045Z,28.29
2023-05-24T08:56:40.415Z,27.71
2023-05-24T08:59:14.414Z,27.04
2023-05-24T09:01:52.306Z,26.69
2023-05-24T09:04:25.556Z,26.09
2023-05-24T09:06:58.711Z,25.66
2023-05-24T09:09:35.594Z,26.24
2023-05-24T09:12:16.881Z,27.07
2023-05-24T09:14:52.970Z,27.27
2023-05-24T09:17:26.044Z,27.54
2023-05-24T09:19:59.792Z,27.58
2023-05-24T09:22:33.681Z,26.85
2023-05-24T09:25:09.712Z,27.02
2023-05-24T09:27:42.694Z,27.56
2023-05-24T09:30:16.548Z,27.21
2023-05-24T09:32:57.111Z,27.11
2023-05-24T09:35:29.826Z,28.86
2023-05-24T09:38:02.518Z,29.03
2023-05-24T09:40:36.575Z,29.35
2023-05-24T09:43:10.242Z,31.02
2023-05-24T09:45:44.456Z,30.78
2023-05-24T09:48:17.953Z,30.59
2023-05-24T09:50:58.770Z,30.79
2023-05-24T09:53:32.463Z,30.74
2023-05-24T09:56:07.050Z,30.52
2023-05-24T09:58:40.504Z,30.72
2023-05-24T10:01:14.556Z,31.12
2023-05-24T10:03:54.315Z,31.01
2023-05-24T10:06:27.120Z,31.39
2023-05-24T10:09:01.294Z,31.51
2023-05-24T10:11:37.018Z,31.97
2023-05-24T10:14:11.279Z,32.39
2023-05-24T10:16:44.044Z,32.51
2023-05-24T10:19:17.184Z,32.79
2023-05-24T10:21:50.596Z,33.00
2023-05-24T10:24:25.608Z,32.84
2023-05-24T10:27:00.431Z,33.06
2023-05-24T10:29:37.893Z,32.91
2023-05-24T10:32:13.678Z,32.67
2023-05-24T10:34:47.392Z,32.36
2023-05-24T10:37:20.118Z,31.77
2023-05-24T10:39:52.866Z,31.60
2023-05-24T10:42:27.087Z,31.55
2023-05-24T10:44:59.954Z,31.38
2023-05-24T10:47:33.136Z,31.59
2023-05-24T10:50:17.442Z,31.26
2023-05-24T10:52:50.624Z,31.39
2023-05-24T10:55:23.424Z,31.65
2023-05-24T10:57:57.470Z,31.77
2023-05-24T11:00:35.712Z,31.82
2023-05-24T11:03:10.496Z,31.79
2023-05-24T11:05:54.338Z,31.74
2023-05-24T11:08:31.767Z,31.99
2023-05-24T11:11:24.282Z,31.99
2023-05-24T11:14:01.821Z,31.82
2023-05-24T11:16:35.305Z,31.81
2023-05-24T11:19:16.089Z,31.60
2023-05-24T11:21:49.611Z,31.57
2023-05-24T11:24:23.518Z,31.83
2023-05-24T11:26:57.161Z,31.79
2023-05-24T11:29:31.598Z,31.60
2023-05-24T11:32:05.543Z,31.81
2023-05-24T11:34:39.970Z,31.66
2023-05-24T11:37:14.581Z,31.56
2023-05-24T11:39:51.529Z,31.70
2023-05-24T11:42:24.287Z,31.33
2023-05-24T11:44:58.464Z,31.67
2023-05-24T11:47:31.237Z,31.79
2023-05-24T11:50:05.401Z,31.78
2023-05-24T11:52:40.071Z,31.82
2023-05-24T11:55:16.401Z,32.08
2023-05-24T11:57:55.630Z,32.15
2023-05-24T12:00:29.730Z,32.32
2023-05-24T12:03:07.391Z,32.36
2023-05-24T12:05:40.447Z,32.37
2023-05-24T12:08:15.517Z,32.49
2023-05-24T12:10:50.791Z,32.49
2023-05-24T12:13:24.939Z,32.35
2023-05-24T12:15:59.137Z,32.26
2023-05-24T12:18:32.143Z,32.06
2023-05-24T12:21:08.086Z,32.15
2023-05-24T12:23:40.818Z,31.92
2023-05-24T12:26:14.550Z,32.14
2023-05-24T12:28:49.163Z,32.32
2023-05-24T12:31:23.432Z,32.32
2023-05-24T12:33:56.515Z,32.51
2023-05-24T12:36:29.477Z,32.50
2023-05-24T12:39:06.144Z,32.67
2023-05-24T12:41:38.905Z,32.50
2023-05-24T12:44:12.202Z,32.57
2023-05-24T12:46:46.333Z,32.41
2023-05-24T12:49:19.150Z,32.27
2023-05-24T12:51:52.304Z,32.98
2023-05-24T12:54:25.735Z,33.20
2023-05-24T12:56:59.917Z,33.33
2023-05-24T12:59:34.145Z,33.83
2023-05-24T13:02:08.401Z,34.01
2023-05-24T13:04:41.128Z,34.00
2023-05-24T13:07:14.076Z,34.33
2023-05-24T13:09:46.788Z,34.60
2023-05-24T13:12:19.543Z,34.56
2023-05-24T13:14:52.996Z,34.98
2023-05-24T13:17:27.316Z,34.89
2023-05-24T13:20:00.768Z,35.07
2023-05-24T13:22:33.984Z,35.18
2023-05-24T13:25:07.477Z,34.91
2023-05-24T13:27:41.102Z,35.03
2023-05-24T13:30:14.148Z,34.75
2023-05-24T13:32:48.267Z,34.70
2023-05-24T13:35:22.176Z,34.78
2023-05-24T13:37:55.916Z,34.69
2023-05-24T13:40:28.616Z,34.98
2023-05-24T13:43:01.542Z,34.94
2023-05-24T13:45:34.540Z,34.99
2023-05-24T13:48:08.652Z,34.86
2023-05-24T13:50:41.613Z,35.13
2023-05-24T13:53:15.240Z,34.93
2023-05-24T13:55:47.913Z,34.91
2023-05-24T13:58:20.754Z,35.15
2023-05-24T14:00:53.519Z,35.00
2023-05-24T14:03:27.573Z,35.11
2023-05-24T14:06:00.487Z,35.50
2023-05-24T14:08:33.228Z,35.21
2023-05-24T14:11:05.928Z,35.41
2023-05-24T14:16:14.782Z,35.62
2023-05-24T14:18:50.297Z,35.17
2023-05-24T14:21:23.504Z,35.55
2023-05-24T14:23:56.208Z,35.50
2023-05-24T14:26:28.872Z,35.55
2023-05-24T14:29:01.601Z,35.29
2023-05-24T14:31:35.734Z,35.44
2023-05-24T14:34:11.047Z,35.56
2023-05-24T14:36:45.441Z,35.59
2023-05-24T14:39:18.191Z,35.65
2023-05-24T14:41:50.951Z,35.56
2023-05-24T14:44:23.793Z,35.38
2023-05-24T14:46:56.597Z,35.57
2023-05-24T14:49:30.878Z,35.49
2023-05-24T14:52:05.004Z,35.50
2023-05-24T14:54:37.744Z,35.63
2023-05-24T14:57:10.405Z,35.95
2023-05-24T14:59:43.099Z,35.96
2023-05-24T15:02:15.825Z,36.11
2023-05-24T15:04:49.896Z,35.92
2023-05-24T15:07:22.817Z,36.18
2023-05-24T15:09:55.949Z,35.96
2023-05-24T15:12:28.699Z,35.95
2023-05-24T15:15:01.439Z,36.00
2023-05-24T15:17:34.136Z,36.04
2023-05-24T15:20:08.864Z,36.00
2023-05-24T15:22:41.616Z,36.05
2023-05-24T15:25:14.431Z,36.00
2023-05-24T15:27:47.624Z,36.20
2023-05-24T15:30:20.853Z,36.03
2023-05-24T15:32:53.624Z,36.00
2023-05-24T15:35:27.846Z,36.01
2023-05-24T15:38:00.659Z,36.08
2023-05-24T15:40:33.767Z,36.37
2023-05-24T15:43:06.742Z,36.30
2023-05-24T15:45:40.453Z,36.36
2023-05-24T15:48:13.590Z,36.19
2023-05-24T15:51:22.573Z,36.09
2023-05-24T15:53:40.456Z,36.18
2023-05-24T15:56:13.232Z,36.11
2023-05-24T15:58:46.756Z,36.48
2023-05-24T16:01:19.558Z,36.33
2023-05-24T16:03:52.467Z,36.53
2023-05-24T16:06:26.573Z,36.26
2023-05-24T16:08:59.272Z,36.48
2023-05-24T16:11:31.961Z,36.65
2023-05-24T16:14:05.394Z,36.81
2023-05-24T16:16:38.337Z,36.58
2023-05-24T16:19:11.145Z,36.61
2023-05-24T16:21:45.426Z,36.80
2023-05-24T16:24:18.192Z,36.95
2023-05-24T16:26:50.862Z,36.86
2023-05-24T16:29:23.638Z,36.72
2023-05-24T16:31:56.428Z,36.74
2023-05-24T16:34:29.249Z,36.91
2023-05-24T16:37:03.944Z,37.14
2023-05-24T16:39:37.699Z,37.15
2023-05-24T16:42:10.431Z,37.07
2023-05-24T16:44:43.114Z,37.21
2023-05-24T16:47:16.015Z,37.31
2023-05-24T16:49:48.775Z,37.52
2023-05-24T16:52:22.898Z,37.69
2023-05-24T16:54:55.636Z,37.56
2023-05-24T16:57:28.288Z,37.79
2023-05-24T17:00:01.149Z,37.62
2023-05-24T17:02:34.816Z,37.57
2023-05-24T17:05:08.128Z,37.55
2023-05-24T17:07:42.809Z,37.54
2023-05-24T17:10:15.503Z,37.68
2023-05-24T17:12:49.337Z,37.45
2023-05-24T17:15:22.087Z,37.69
2023-05-24T17:17:55.912Z,37.78
2023-05-24T17:20:29.279Z,37.60
2023-05-24T17:23:03.457Z,37.76
2023-05-24T17:25:36.076Z,37.71
2023-05-24T17:28:08.874Z,37.76
2023-05-24T17:30:41.792Z,37.90
2023-05-24T17:33:14.952Z,37.82
2023-05-24T17:35:47.665Z,38.04
2023-05-24T17:38:21.701Z,38.17
2023-05-24T17:40:57.046Z,38.06
2023-05-24T17:43:32.475Z,37.94
2023-05-24T17:46:06.965Z,37.93
2023-05-24T17:48:40.720Z,38.04
2023-05-24T17:51:14.555Z,37.98
2023-05-24T17:53:48.695Z,38.13
2023-05-24T17:56:23.407Z,38.16
2023-05-24T17:58:56.140Z,38.41
2023-05-24T18:01:29.225Z,38.24
2023-05-24T18:04:02.015Z,38.34
2023-05-24T18:06:34.856Z,38.30
2023-05-24T18:09:09.931Z,38.39
2023-05-24T18:11:42.768Z,38.35
2023-05-24T18:14:15.624Z,38.45
2023-05-24T18:16:48.593Z,38.45
2023-05-24T18:19:21.723Z,38.55
2023-05-24T18:21:54.625Z,38.57
2023-05-24T18:24:28.793Z,38.47
2023-05-24T18:27:03.968Z,38.51
2023-05-24T18:29:36.725Z,38.84
2023-05-24T18:32:09.614Z,38.85
2023-05-24T18:34:42.359Z,38.89
2023-05-24T18:37:15.128Z,38.88
2023-05-24T18:39:49.212Z,38.75
2023-05-24T18:42:21.933Z,38.91
2023-05-24T18:44:55.254Z,39.04
2023-05-24T18:47:31.024Z,38.88
2023-05-24T18:50:03.838Z,39.10
2023-05-24T18:52:36.712Z,38.99
2023-05-24T18:55:11.492Z,38.94
2023-05-24T18:57:44.218Z,39.19
2023-05-24T19:00:19.373Z,38.90
2023-05-24T19:02:52.265Z,39.12
2023-05-24T19:05:25.076Z,39.15
2023-05-24T19:07:57.750Z,39.00
2023-05-24T19:10:31.850Z,39.00
2023-05-24T19:13:04.559Z,39.08
2023-05-24T19:15:37.396Z,38.95
2023-05-24T19:18:12.060Z,38.93
2023-05-24T19:20:44.745Z,39.15
2023-05-24T19:23:18.278Z,39.07
2023-05-24T19:25:52.516Z,39.24
2023-05-24T19:28:25.386Z,39.07
2023-05-24T19:31:01.201Z,39.21
2023-05-24T19:33:33.987Z,39.24
2023-05-24T19:36:10.488Z,39.19
2023-05-24T19:38:43.445Z,39.19
2023-05-24T19:41:17.691Z,39.46
2023-05-24T19:43:50.495Z,39.13
2023-05-24T19:46:24.207Z,39.36
2023-05-24T19:48:57.046Z,39.26
2023-05-24T19:51:29.825Z,39.42
2023-05-24T19:54:02.621Z,39.39
2023-05-24T19:56:36.840Z,39.48
2023-05-24T19:59:09.592Z,39.30
2023-05-24T20:01:42.437Z,39.38
2023-05-24T20:04:15.519Z,39.24
2023-05-24T20:06:48.481Z,39.38
2023-05-24T20:09:21.465Z,39.53
2023-05-24T20:11:55.765Z,39.52
2023-05-24T20:14:31.335Z,39.26
2023-05-24T20:17:05.120Z,39.58
2023-05-24T20:19:37.955Z,39.61
2023-05-24T20:22:10.923Z,39.65
2023-05-24T20:24:43.687Z,39.74
2023-05-24T20:27:17.899Z,39.65
2023-05-24T20:29:51.133Z,39.42
2023-05-24T20:32:23.920Z,39.81
2023-05-24T20:34:56.765Z,39.80
2023-05-24T20:37:29.589Z,39.80
2023-05-24T20:40:02.289Z,39.83
2023-05-24T20:42:37.101Z,39.59
2023-05-24T20:45:10.626Z,39.75
2023-05-24T20:47:43.487Z,39.79
2023-05-24T20:50:16.338Z,39.62
2023-05-24T20:52:49.193Z,39.55
2023-05-24T20:55:22.383Z,39.73
2023-05-24T20:57:57.663Z,39.86
2023-05-24T21:00:30.429Z,39.84
2023-05-24T21:03:03.446Z,39.82
2023-05-24T21:05:38.100Z,39.75
2023-05-24T21:08:10.896Z,39.70
2023-05-24T21:10:43.742Z,39.80
2023-05-24T21:13:20.511Z,40.13
2023-05-24T21:15:53.396Z,40.16
2023-05-24T21:18:26.332Z,40.10
2023-05-24T21:20:59.068Z,39.93
2023-05-24T21:23:31.900Z,40.14
2023-05-24T21:26:04.724Z,40.01
2023-05-24T21:28:38.876Z,40.16
2023-05-24T21:31:11.628Z,40.11
2023-05-24T21:33:44.554Z,40.07
2023-05-24T21:36:18.489Z,40.16
2023-05-24T21:38:51.267Z,40.28
2023-05-24T21:41:26.873Z,40.39
2023-05-24T21:44:00.960Z,40.20
2023-05-24T21:46:34.082Z,40.26
2023-05-24T21:49:06.891Z,40.20
2023-05-24T21:51:39.542Z,40.37
2023-05-24T21:54:12.303Z,40.52
2023-05-24T21:56:45.014Z,40.35
2023-05-24T21:59:19.127Z,40.54
2023-05-24T22:01:52.292Z,40.41
2023-05-24T22:04:25.030Z,40.44
2023-05-24T22:06:57.804Z,40.44
2023-05-24T22:09:30.494Z,40.40
2023-05-24T22:12:03.196Z,40.44
2023-05-24T22:15:00.716Z,40.66
2023-05-24T22:17:37.220Z,40.71
2023-05-24T22:20:10.642Z,40.60
2023-05-24T22:22:48.375Z,40.68
2023-05-24T22:25:21.642Z,40.76
2023-05-24T22:27:55.658Z,40.73
2023-05-24T22:30:30.085Z,40.78
2023-05-24T22:33:04.237Z,40.80
2023-05-24T22:35:37.246Z,40.77
2023-05-24T22:38:10.109Z,40.83
2023-05-24T22:40:42.838Z,40.74
2023-05-24T22:43:15.632Z,40.86
2023-05-24T22:45:51.369Z,40.68
2023-05-24T22:48:26.689Z,40.95
2023-05-24T22:50:59.432Z,40.82
2023-05-24T22:53:32.274Z,40.79
2023-05-24T22:56:05.150Z,40.89
2023-05-24T22:58:38.171Z,40.86
2023-05-24T23:01:10.911Z,40.69
2023-05-24T23:03:44.988Z,40.70
2023-05-24T23:06:17.730Z,40.83
2023-05-24T23:08:50.400Z,40.87
2023-05-24T23:11:24.279Z,40.95
2023-05-24T23:13:59.586Z,40.77
2023-05-24T23:16:34.282Z,40.67
2023-05-24T23:19:08.393Z,40.83
2023-05-24T23:21:42.204Z,40.83
2023-05-24T23:24:15.938Z,40.83
2023-05-24T23:26:48.790Z,40.95
2023-05-24T23:29:21.583Z,40.82
2023-05-24T23:31:54.329Z,41.01
2023-05-24T23:34:28.576Z,40.79
2023-05-24T23:37:01.498Z,40.77
2023-05-24T23:39:34.697Z,40.93
2023-05-24T23:42:07.718Z,40.96
2023-05-24T23:44:40.428Z,40.72
2023-05-24T23:47:13.233Z,40.92
2023-05-24T23:49:47.330Z,40.95
2023-05-24T23:52:20.034Z,40.91
2023-05-24T23:54:52.706Z,40.71
2023-05-24T23:57:27.140Z,40.84
2023-05-24T23:59:59.824Z,41.01
